createdAt,value
2019-02-15T13:45:38.991Z,39.400002
2019-02-15T13:50:41.259Z,40.099998
2019-02-15T13:55:43.612Z,39.599998
2019-02-15T14:00:48.172Z,40.099998
2019-02-15T14:05:48.262Z,38.599998
2019-02-15T14:10:50.454Z,37.200001
2019-02-15T14:15:54.034Z,38.5
2019-02-15T14:20:55.208Z,40.200001
2019-02-15T14:25:57.309Z,39
2019-02-15T14:31:01.036Z,37
2019-02-15T14:36:01.997Z,35.799999
2019-02-15T14:41:04.277Z,35.5
2019-02-15T14:46:06.498Z,35.700001
2019-02-15T14:51:08.850Z,36.900002
2019-02-15T14:56:11.130Z,35.5
2019-02-15T15:01:13.401Z,36.599998
2019-02-15T15:06:15.780Z,41.700001
2019-02-15T15:11:18.053Z,38.099998
2019-02-15T15:16:20.260Z,38.099998
2019-02-15T15:21:22.631Z,40.200001
2019-02-15T15:26:24.831Z,42.400002
2019-02-15T15:31:29.623Z,43.200001
2019-02-15T15:36:29.580Z,44.299999
2019-02-15T15:41:31.744Z,44.799999
2019-02-15T15:46:34.054Z,47.099998
2019-02-15T15:51:36.332Z,49.400002
2019-02-15T15:56:38.522Z,48.299999
2019-02-15T16:01:40.949Z,49.700001
2019-02-15T16:16:06.304Z,57.299999
2019-02-15T16:21:06.362Z,56.5
2019-02-15T16:26:08.551Z,58
2019-02-15T16:31:10.917Z,59.400002
2019-02-15T16:36:13.206Z,61.400002
2019-02-15T16:41:15.553Z,64
2019-02-15T16:46:19.111Z,65
2019-02-15T16:51:20.136Z,67.699997
2019-02-15T16:56:22.396Z,68.900002
2019-02-15T17:01:26.073Z,73.599998
2019-02-15T17:06:27.912Z,74.400002
2019-02-15T17:11:33.478Z,72
2019-02-15T17:16:33.010Z,78.900002
2019-02-15T17:21:33.893Z,76.599998
2019-02-15T17:26:37.763Z,78.199997
2019-02-15T17:31:42.560Z,87
2019-02-15T17:36:40.672Z,89.5
2019-02-15T17:41:43.028Z,88.699997
2019-02-15T17:46:45.487Z,91.599998
2019-02-15T17:58:46.416Z,97.300003
2019-02-15T18:03:42.512Z,94.800003
2019-02-15T18:08:44.741Z,97.400002
2019-02-15T18:13:47.103Z,99.900002
2019-02-15T18:18:49.362Z,99.900002
2019-02-15T18:23:51.740Z,99.900002
2019-02-15T18:28:53.919Z,99.900002
2019-02-15T18:33:56.220Z,99.900002
2019-02-15T18:38:58.598Z,99.900002
2019-02-15T18:44:00.899Z,99.900002
2019-02-15T18:49:03.102Z,99.900002
2019-02-15T18:54:05.450Z,99.900002
2019-02-15T18:59:07.816Z,99.900002
2019-02-15T19:04:11.796Z,99.900002
2019-02-15T19:09:13.745Z,99.900002
2019-02-15T19:14:14.730Z,97.300003
2019-02-15T19:24:19.192Z,91.800003
2019-02-15T19:29:21.437Z,86.900002
2019-02-15T19:34:23.807Z,88.099998
2019-02-15T19:39:26.122Z,91.699997
2019-02-15T19:44:28.400Z,93.300003
2019-02-15T19:49:38.459Z,92.199997
2019-02-15T19:54:34.698Z,90.900002
2019-02-15T19:59:35.205Z,98.199997
2019-02-15T20:04:37.508Z,96.900002
2019-02-15T20:09:39.883Z,96.900002
2019-02-15T20:14:42.083Z,97.599998
2019-02-15T20:19:48.664Z,94.900002
2019-02-15T20:24:46.757Z,92.900002
2019-02-15T20:29:49.579Z,91.699997
2019-02-15T20:34:51.305Z,83.800003
2019-02-15T20:39:53.927Z,85.099998
2019-02-15T20:44:57.817Z,81.599998
2019-02-15T20:51:50.361Z,86
2019-02-15T20:59:26.652Z,83
2019-02-15T21:04:26.848Z,80.900002
2019-02-15T21:09:29.099Z,77.400002
2019-02-15T21:14:31.491Z,80.599998
2019-02-15T21:19:33.774Z,82.900002
2019-02-15T21:24:36.074Z,79.199997
2019-02-15T21:29:38.285Z,78.099998
2019-02-15T21:34:41.674Z,68.300003
2019-02-15T21:39:42.906Z,64.5
2019-02-15T21:44:45.205Z,64.400002
2019-02-15T21:49:47.509Z,62.799999
2019-02-15T21:54:49.663Z,63.099998
2019-02-15T21:59:52.032Z,65.199997
2019-02-15T22:04:54.327Z,68.300003
2019-02-15T22:09:56.642Z,71.900002
2019-02-15T22:14:59.209Z,71.5
2019-02-15T22:20:01.194Z,71
2019-02-15T22:25:03.496Z,71.599998
2019-02-15T22:30:05.847Z,75.099998
2019-02-15T22:35:08.209Z,77
2019-02-15T22:40:10.379Z,79
2019-02-15T22:45:12.794Z,80.300003
2019-02-15T22:50:14.965Z,80.699997
2019-02-15T22:55:19.182Z,81.699997
2019-02-15T23:00:19.493Z,82.599998
2019-02-15T23:05:21.783Z,84
2019-02-15T23:10:24.185Z,88.800003
2019-02-15T23:15:26.389Z,93.300003
2019-02-15T23:20:30.454Z,95.099998
2019-02-15T23:25:32.630Z,99.900002
2019-02-15T23:30:33.321Z,99.900002
2019-02-15T23:35:35.656Z,99
2019-02-15T23:40:37.947Z,95.900002
